sensor_id;sensor_type;location;lat;lon;timestamp;temperature;humidity
26049;DHT22;13822;51.568;5.086;2023-04-09T00:26:12;10.70;99.90
26049;DHT22;13822;51.568;5.086;2023-04-09T00:32:56;10.70;99.90
26049;DHT22;13822;51.568;5.086;2023-04-09T00:45:53;10.60;99.90
26049;DHT22;13822;51.568;5.086;2023-04-09T00:59:00;10.50;99.90
26049;DHT22;13822;51.568;5.086;2023-04-09T02:11:46;10.40;99.90
26049;DHT22;13822;51.568;5.086;2023-04-09T02:18:26;10.30;99.90
26049;DHT22;13822;51.568;5.086;2023-04-09T02:24:54;10.30;99.90
26049;DHT22;13822;51.568;5.086;2023-04-09T02:31:21;10.30;99.90
26049;DHT22;13822;51.568;5.086;2023-04-09T02:57:14;10.20;99.90
26049;DHT22;13822;51.568;5.086;2023-04-09T03:03:40;10.20;99.90
26049;DHT22;13822;51.568;5.086;2023-04-09T03:10:03;10.20;99.90
26049;DHT22;13822;51.568;5.086;2023-04-09T03:22:52;10.30;99.90
26049;DHT22;13822;51.568;5.086;2023-04-09T04:01:59;10.30;99.90
26049;DHT22;13822;51.568;5.086;2023-04-09T04:22:42;10.20;99.90
26049;DHT22;13822;51.568;5.086;2023-04-09T05:22:24;10.10;99.90
26049;DHT22;13822;51.568;5.086;2023-04-09T05:27:26;10.00;99.90
26049;DHT22;13822;51.568;5.086;2023-04-09T05:32:28;9.90;99.90
26049;DHT22;13822;51.568;5.086;2023-04-09T05:37:31;10.00;99.90
26049;DHT22;13822;51.568;5.086;2023-04-09T05:42:32;10.00;99.90
26049;DHT22;13822;51.568;5.086;2023-04-09T05:47:34;10.00;99.90
26049;DHT22;13822;51.568;5.086;2023-04-09T05:52:36;10.10;99.90
26049;DHT22;13822;51.568;5.086;2023-04-09T05:57:38;10.00;99.90
26049;DHT22;13822;51.568;5.086;2023-04-09T06:02:40;9.90;99.90
26049;DHT22;13822;51.568;5.086;2023-04-09T06:07:42;9.80;99.90
26049;DHT22;13822;51.568;5.086;2023-04-09T06:12:44;9.60;99.90
26049;DHT22;13822;51.568;5.086;2023-04-09T06:17:46;9.60;99.90
26049;DHT22;13822;51.568;5.086;2023-04-09T06:22:48;9.50;99.90
26049;DHT22;13822;51.568;5.086;2023-04-09T06:27:50;9.40;99.90
26049;DHT22;13822;51.568;5.086;2023-04-09T06:32:52;9.30;99.90
26049;DHT22;13822;51.568;5.086;2023-04-09T06:37:56;9.30;99.90
26049;DHT22;13822;51.568;5.086;2023-04-09T06:42:58;9.20;99.90
26049;DHT22;13822;51.568;5.086;2023-04-09T06:48:00;9.20;99.90
26049;DHT22;13822;51.568;5.086;2023-04-09T06:53:02;9.20;99.90
26049;DHT22;13822;51.568;5.086;2023-04-09T06:58:04;9.10;99.90
26049;DHT22;13822;51.568;5.086;2023-04-09T07:03:06;9.10;99.90
26049;DHT22;13822;51.568;5.086;2023-04-09T07:08:10;9.10;99.90
26049;DHT22;13822;51.568;5.086;2023-04-09T07:13:12;9.10;99.90
26049;DHT22;13822;51.568;5.086;2023-04-09T07:18:14;9.10;99.90
26049;DHT22;13822;51.568;5.086;2023-04-09T07:23:16;9.20;99.90
26049;DHT22;13822;51.568;5.086;2023-04-09T07:28:18;9.30;99.90
26049;DHT22;13822;51.568;5.086;2023-04-09T07:33:19;9.30;99.90
26049;DHT22;13822;51.568;5.086;2023-04-09T07:38:22;9.40;99.90
26049;DHT22;13822;51.568;5.086;2023-04-09T07:43:23;9.40;99.90
26049;DHT22;13822;51.568;5.086;2023-04-09T07:48:25;9.50;99.90
26049;DHT22;13822;51.568;5.086;2023-04-09T07:53:29;9.60;99.90
26049;DHT22;13822;51.568;5.086;2023-04-09T07:58:31;9.70;99.90
26049;DHT22;13822;51.568;5.086;2023-04-09T08:03:33;9.70;99.90
26049;DHT22;13822;51.568;5.086;2023-04-09T08:08:37;9.90;99.90
26049;DHT22;13822;51.568;5.086;2023-04-09T08:13:39;9.90;99.90
26049;DHT22;13822;51.568;5.086;2023-04-09T08:18:41;10.00;99.90
26049;DHT22;13822;51.568;5.086;2023-04-09T08:23:43;10.10;99.90
26049;DHT22;13822;51.568;5.086;2023-04-09T08:28:45;10.20;99.90
26049;DHT22;13822;51.568;5.086;2023-04-09T08:33:47;10.40;99.90
26049;DHT22;13822;51.568;5.086;2023-04-09T08:38:49;10.50;99.90
26049;DHT22;13822;51.568;5.086;2023-04-09T08:43:51;10.60;99.90
26049;DHT22;13822;51.568;5.086;2023-04-09T08:48:59;10.70;99.90
26049;DHT22;13822;51.568;5.086;2023-04-09T08:54:01;10.90;99.90
26049;DHT22;13822;51.568;5.086;2023-04-09T08:59:05;11.10;99.90
26049;DHT22;13822;51.568;5.086;2023-04-09T09:04:07;11.40;99.90
26049;DHT22;13822;51.568;5.086;2023-04-09T09:09:13;11.50;99.90
26049;DHT22;13822;51.568;5.086;2023-04-09T09:14:18;11.70;99.90
26049;DHT22;13822;51.568;5.086;2023-04-09T09:24:26;12.10;99.90
26049;DHT22;13822;51.568;5.086;2023-04-09T09:29:28;12.20;99.90
26049;DHT22;13822;51.568;5.086;2023-04-09T09:34:30;12.30;99.90
26049;DHT22;13822;51.568;5.086;2023-04-09T09:39:41;12.50;99.90
26049;DHT22;13822;51.568;5.086;2023-04-09T09:44:44;12.70;99.90
26049;DHT22;13822;51.568;5.086;2023-04-09T09:49:48;12.80;99.90
26049;DHT22;13822;51.568;5.086;2023-04-09T09:54:52;12.90;99.90
26049;DHT22;13822;51.568;5.086;2023-04-09T09:59:59;13.20;99.90
26049;DHT22;13822;51.568;5.086;2023-04-09T10:05:02;13.40;99.90
26049;DHT22;13822;51.568;5.086;2023-04-09T10:10:06;13.70;99.90
26049;DHT22;13822;51.568;5.086;2023-04-09T10:15:09;14.00;99.90
26049;DHT22;13822;51.568;5.086;2023-04-09T10:20:13;14.30;99.90
26049;DHT22;13822;51.568;5.086;2023-04-09T10:25:18;14.40;99.90
26049;DHT22;13822;51.568;5.086;2023-04-09T10:30:33;14.60;99.90
26049;DHT22;13822;51.568;5.086;2023-04-09T10:35:36;14.70;99.90
26049;DHT22;13822;51.568;5.086;2023-04-09T10:40:41;15.00;99.90
26049;DHT22;13822;51.568;5.086;2023-04-09T10:45:48;15.30;99.90
26049;DHT22;13822;51.568;5.086;2023-04-09T10:50:54;15.60;99.90
26049;DHT22;13822;51.568;5.086;2023-04-09T10:55:56;15.80;99.90
26049;DHT22;13822;51.568;5.086;2023-04-09T11:00:58;16.30;99.90
26049;DHT22;13822;51.568;5.086;2023-04-09T11:06:03;16.80;99.90
26049;DHT22;13822;51.568;5.086;2023-04-09T11:11:12;16.90;99.90
26049;DHT22;13822;51.568;5.086;2023-04-09T11:16:14;17.10;99.90
26049;DHT22;13822;51.568;5.086;2023-04-09T11:21:26;17.40;99.90
26049;DHT22;13822;51.568;5.086;2023-04-09T11:26:35;17.60;99.90
26049;DHT22;13822;51.568;5.086;2023-04-09T11:31:49;18.00;99.70
26049;DHT22;13822;51.568;5.086;2023-04-09T11:37:00;18.30;98.10
26049;DHT22;13822;51.568;5.086;2023-04-09T11:42:53;18.80;99.90
26049;DHT22;13822;51.568;5.086;2023-04-09T11:48:21;19.40;97.40
26049;DHT22;13822;51.568;5.086;2023-04-09T11:53:29;19.10;91.60
26049;DHT22;13822;51.568;5.086;2023-04-09T11:58:32;18.90;91.80
26049;DHT22;13822;51.568;5.086;2023-04-09T12:03:34;18.60;90.70
26049;DHT22;13822;51.568;5.086;2023-04-09T12:08:38;18.30;92.50
26049;DHT22;13822;51.568;5.086;2023-04-09T12:13:41;18.50;88.90
26049;DHT22;13822;51.568;5.086;2023-04-09T12:19:12;18.10;86.60
26049;DHT22;13822;51.568;5.086;2023-04-09T12:24:15;17.90;91.50
26049;DHT22;13822;51.568;5.086;2023-04-09T12:29:19;18.10;91.40
26049;DHT22;13822;51.568;5.086;2023-04-09T12:34:21;18.60;91.20
26049;DHT22;13822;51.568;5.086;2023-04-09T12:39:23;19.30;90.70
26049;DHT22;13822;51.568;5.086;2023-04-09T12:44:25;19.70;78.70
26049;DHT22;13822;51.568;5.086;2023-04-09T12:49:28;19.30;78.00
26049;DHT22;13822;51.568;5.086;2023-04-09T12:54:30;19.20;81.00
26049;DHT22;13822;51.568;5.086;2023-04-09T12:59:32;19.80;78.80
26049;DHT22;13822;51.568;5.086;2023-04-09T13:04:33;20.00;71.80
26049;DHT22;13822;51.568;5.086;2023-04-09T13:09:36;20.20;68.30
26049;DHT22;13822;51.568;5.086;2023-04-09T13:14:38;20.20;69.00
26049;DHT22;13822;51.568;5.086;2023-04-09T13:19:40;20.00;66.40
26049;DHT22;13822;51.568;5.086;2023-04-09T13:24:43;19.90;65.50
26049;DHT22;13822;51.568;5.086;2023-04-09T13:29:45;19.60;66.60
26049;DHT22;13822;51.568;5.086;2023-04-09T13:34:47;19.20;65.80
26049;DHT22;13822;51.568;5.086;2023-04-09T13:39:49;18.80;67.00
26049;DHT22;13822;51.568;5.086;2023-04-09T13:44:52;18.50;66.50
26049;DHT22;13822;51.568;5.086;2023-04-09T13:49:54;18.30;66.50
26049;DHT22;13822;51.568;5.086;2023-04-09T13:54:56;18.00;68.60
26049;DHT22;13822;51.568;5.086;2023-04-09T13:59:58;17.90;66.90
26049;DHT22;13822;51.568;5.086;2023-04-09T14:05:04;17.80;69.00
26049;DHT22;13822;51.568;5.086;2023-04-09T14:10:06;17.80;70.10
26049;DHT22;13822;51.568;5.086;2023-04-09T14:15:09;17.80;68.20
26049;DHT22;13822;51.568;5.086;2023-04-09T14:20:11;17.70;70.70
26049;DHT22;13822;51.568;5.086;2023-04-09T14:25:16;17.50;69.50
26049;DHT22;13822;51.568;5.086;2023-04-09T14:30:18;17.50;69.80
26049;DHT22;13822;51.568;5.086;2023-04-09T14:35:23;17.50;72.90
26049;DHT22;13822;51.568;5.086;2023-04-09T14:40:25;17.40;69.80
26049;DHT22;13822;51.568;5.086;2023-04-09T14:45:29;17.20;69.60
26049;DHT22;13822;51.568;5.086;2023-04-09T14:50:31;17.40;71.20
26049;DHT22;13822;51.568;5.086;2023-04-09T14:55:34;18.10;71.40
26049;DHT22;13822;51.568;5.086;2023-04-09T15:00:36;18.50;63.60
26049;DHT22;13822;51.568;5.086;2023-04-09T15:05:39;18.70;64.00
26049;DHT22;13822;51.568;5.086;2023-04-09T15:10:41;19.20;65.40
26049;DHT22;13822;51.568;5.086;2023-04-09T15:15:43;19.60;61.00
26049;DHT22;13822;51.568;5.086;2023-04-09T15:20:45;19.80;59.60
26049;DHT22;13822;51.568;5.086;2023-04-09T15:25:54;20.20;63.30
26049;DHT22;13822;51.568;5.086;2023-04-09T15:30:56;20.40;58.30
26049;DHT22;13822;51.568;5.086;2023-04-09T15:35:58;20.70;60.30
26049;DHT22;13822;51.568;5.086;2023-04-09T15:41:00;20.70;54.80
26049;DHT22;13822;51.568;5.086;2023-04-09T15:46:06;20.40;54.40
26049;DHT22;13822;51.568;5.086;2023-04-09T15:51:09;20.00;56.40
26049;DHT22;13822;51.568;5.086;2023-04-09T15:56:11;19.50;55.40
26049;DHT22;13822;51.568;5.086;2023-04-09T16:01:15;19.00;56.70
26049;DHT22;13822;51.568;5.086;2023-04-09T16:06:18;18.80;57.70
26049;DHT22;13822;51.568;5.086;2023-04-09T16:11:20;18.80;58.80
26049;DHT22;13822;51.568;5.086;2023-04-09T16:16:22;18.80;59.50
26049;DHT22;13822;51.568;5.086;2023-04-09T16:21:23;18.70;57.80
26049;DHT22;13822;51.568;5.086;2023-04-09T16:26:26;18.50;60.40
26049;DHT22;13822;51.568;5.086;2023-04-09T16:31:28;18.40;60.10
26049;DHT22;13822;51.568;5.086;2023-04-09T16:36:30;18.40;60.50
26049;DHT22;13822;51.568;5.086;2023-04-09T16:41:33;18.30;59.30
26049;DHT22;13822;51.568;5.086;2023-04-09T16:46:37;18.20;60.20
26049;DHT22;13822;51.568;5.086;2023-04-09T16:51:39;18.10;59.60
26049;DHT22;13822;51.568;5.086;2023-04-09T16:56:41;17.90;60.40
26049;DHT22;13822;51.568;5.086;2023-04-09T17:01:43;17.70;63.00
26049;DHT22;13822;51.568;5.086;2023-04-09T17:06:45;17.50;59.70
26049;DHT22;13822;51.568;5.086;2023-04-09T17:11:48;17.40;61.10
26049;DHT22;13822;51.568;5.086;2023-04-09T17:16:50;17.20;60.40
26049;DHT22;13822;51.568;5.086;2023-04-09T17:21:54;17.00;59.80
26049;DHT22;13822;51.568;5.086;2023-04-09T17:26:57;16.90;61.10
26049;DHT22;13822;51.568;5.086;2023-04-09T17:31:59;16.80;60.90
26049;DHT22;13822;51.568;5.086;2023-04-09T17:37:01;16.60;61.90
26049;DHT22;13822;51.568;5.086;2023-04-09T17:42:04;16.50;63.00
26049;DHT22;13822;51.568;5.086;2023-04-09T17:47:07;16.30;62.40
26049;DHT22;13822;51.568;5.086;2023-04-09T17:52:09;16.20;63.60
26049;DHT22;13822;51.568;5.086;2023-04-09T17:57:11;16.00;64.00
26049;DHT22;13822;51.568;5.086;2023-04-09T18:02:13;15.80;64.70
26049;DHT22;13822;51.568;5.086;2023-04-09T18:07:15;15.60;65.60
26049;DHT22;13822;51.568;5.086;2023-04-09T18:12:17;15.50;66.10
26049;DHT22;13822;51.568;5.086;2023-04-09T18:17:19;15.40;66.60
26049;DHT22;13822;51.568;5.086;2023-04-09T18:22:21;15.30;66.80
26049;DHT22;13822;51.568;5.086;2023-04-09T18:27:24;15.20;67.10
26049;DHT22;13822;51.568;5.086;2023-04-09T18:32:26;15.10;67.70
26049;DHT22;13822;51.568;5.086;2023-04-09T18:37:28;14.90;68.30
26049;DHT22;13822;51.568;5.086;2023-04-09T18:42:30;14.80;68.40
26049;DHT22;13822;51.568;5.086;2023-04-09T18:47:40;14.80;69.80
26049;DHT22;13822;51.568;5.086;2023-04-09T18:52:56;14.60;69.50
26049;DHT22;13822;51.568;5.086;2023-04-09T18:59:00;14.50;70.00
26049;DHT22;13822;51.568;5.086;2023-04-09T19:04:56;14.40;70.70
26049;DHT22;13822;51.568;5.086;2023-04-09T19:16:00;14.10;71.20
26049;DHT22;13822;51.568;5.086;2023-04-09T19:21:51;14.00;71.70
26049;DHT22;13822;51.568;5.086;2023-04-09T19:27:20;13.90;72.70
26049;DHT22;13822;51.568;5.086;2023-04-09T19:39:32;13.60;73.00
26049;DHT22;13822;51.568;5.086;2023-04-09T19:45:27;13.60;73.50
26049;DHT22;13822;51.568;5.086;2023-04-09T19:51:08;13.50;74.30
26049;DHT22;13822;51.568;5.086;2023-04-09T20:10:05;13.20;75.80
26049;DHT22;13822;51.568;5.086;2023-04-09T20:16:06;13.10;76.30
26049;DHT22;13822;51.568;5.086;2023-04-09T20:27:46;13.00;77.20
26049;DHT22;13822;51.568;5.086;2023-04-09T20:33:59;13.00;77.60
26049;DHT22;13822;51.568;5.086;2023-04-09T21:04:31;12.60;80.00
26049;DHT22;13822;51.568;5.086;2023-04-09T21:10:41;12.50;80.40
26049;DHT22;13822;51.568;5.086;2023-04-09T21:16:11;12.40;81.20
26049;DHT22;13822;51.568;5.086;2023-04-09T21:21:55;12.40;81.60
26049;DHT22;13822;51.568;5.086;2023-04-09T21:33:55;12.30;82.60
26049;DHT22;13822;51.568;5.086;2023-04-09T21:39:39;12.20;82.90
26049;DHT22;13822;51.568;5.086;2023-04-09T21:45:17;12.10;83.30
26049;DHT22;13822;51.568;5.086;2023-04-09T22:09:36;11.80;85.50
26049;DHT22;13822;51.568;5.086;2023-04-09T22:21:50;11.60;86.40
26049;DHT22;13822;51.568;5.086;2023-04-09T22:34:38;11.50;87.60
26049;DHT22;13822;51.568;5.086;2023-04-09T22:40:17;11.50;88.20
26049;DHT22;13822;51.568;5.086;2023-04-09T22:46:00;11.40;89.00
26049;DHT22;13822;51.568;5.086;2023-04-09T22:51:24;11.40;89.30
26049;DHT22;13822;51.568;5.086;2023-04-09T22:56:49;11.40;90.00
26049;DHT22;13822;51.568;5.086;2023-04-09T23:07:19;11.30;90.50
26049;DHT22;13822;51.568;5.086;2023-04-09T23:12:35;11.30;90.80
26049;DHT22;13822;51.568;5.086;2023-04-09T23:17:50;11.20;91.20
26049;DHT22;13822;51.568;5.086;2023-04-09T23:23:07;11.10;91.40
26049;DHT22;13822;51.568;5.086;2023-04-09T23:28:19;11.10;91.80
26049;DHT22;13822;51.568;5.086;2023-04-09T23:33:55;11.10;92.00
26049;DHT22;13822;51.568;5.086;2023-04-09T23:39:21;11.00;92.50
26049;DHT22;13822;51.568;5.086;2023-04-09T23:44:31;10.90;92.70
26049;DHT22;13822;51.568;5.086;2023-04-09T23:50:00;10.90;93.10
26049;DHT22;13822;51.568;5.086;2023-04-09T23:55:22;10.80;93.40
